Time;durP1;ratioP1;P1;durP2;ratioP2;P2;SDS_P1;SDS_P2;PMS_P1;PMS_P2;Temp;Humidity;BMP_temperature;BMP_pressure;BME280_temperature;BME280_humidity;BME280_pressure;Samples;Min_cycle;Max_cycle;Signal;HPM_P1;HPM_P2
2022/06/24 00:01:40;;;;;;;5.13;3.15;;;;;;;19.90;78.83;100424.69;5051504;28;20027;-76
2022/06/24 00:04:06;;;;;;;4.10;2.85;;;;;;;19.93;79.40;100429.75;5049349;28;20021;-76
2022/06/24 00:06:49;;;;;;;4.88;2.70;;;;;;;19.95;78.58;100447.16;5050406;28;20037;-76
2022/06/24 00:09:17;;;;;;;7.75;3.10;;;;;;;20.00;78.63;100476.72;5047503;28;20029;-76
2022/06/24 00:11:43;;;;;;;7.80;3.38;;;;;;;20.04;78.81;100502.91;5047410;28;20469;-76
2022/06/24 00:14:11;;;;;;;7.00;3.80;;;;;;;20.05;78.58;100513.38;5053991;28;20036;-76
2022/06/24 00:16:58;;;;;;;7.75;3.65;;;;;;;20.08;77.35;100550.13;5052397;28;20161;-76
2022/06/24 00:19:24;;;;;;;7.28;4.70;;;;;;;20.11;77.99;100578.97;5049927;28;20029;-75
2022/06/24 00:22:19;;;;;;;7.22;4.70;;;;;;;20.12;76.33;100588.56;5047395;28;20033;-75
2022/06/24 00:24:44;;;;;;;4.93;4.05;;;;;;;20.13;78.20;100594.69;5040539;28;20106;-75
2022/06/24 00:27:22;;;;;;;9.27;5.05;;;;;;;20.16;77.74;100616.44;5046218;28;21488;-76
2022/06/24 00:29:49;;;;;;;7.72;4.75;;;;;;;20.21;78.37;100645.19;5051634;28;20025;-76
2022/06/24 00:32:16;;;;;;;8.23;4.93;;;;;;;20.23;79.13;100674.13;5047874;28;20518;-76
2022/06/24 00:34:41;;;;;;;10.70;5.80;;;;;;;20.25;78.99;100711.84;5048296;28;20029;-76
2022/06/24 00:37:24;;;;;;;10.55;5.43;;;;;;;20.21;78.76;100744.72;5048242;28;20468;-76
2022/06/24 00:39:53;;;;;;;9.57;5.70;;;;;;;20.17;80.73;100741.44;5049484;28;20028;-75
2022/06/24 00:42:19;;;;;;;12.15;6.55;;;;;;;20.14;81.95;100704.66;5047392;28;20488;-76
2022/06/24 00:45:20;;;;;;;13.18;6.53;;;;;;;20.13;81.37;100706.47;5046114;28;20033;-76
2022/06/24 00:47:47;;;;;;;13.45;7.10;;;;;;;20.13;83.33;100701.19;5040980;28;20045;-76
2022/06/24 00:50:20;;;;;;;11.30;7.63;;;;;;;20.10;82.70;100682.03;5051437;28;20033;-76
2022/06/24 00:52:46;;;;;;;11.82;8.00;;;;;;;20.08;82.58;100666.31;5047653;28;20118;-76
2022/06/24 00:55:16;;;;;;;12.43;9.48;;;;;;;20.06;82.76;100662.94;5051267;28;20056;-77
2022/06/24 00:57:42;;;;;;;15.77;10.70;;;;;;;20.01;83.16;100649.19;5051202;28;20157;-76
2022/06/24 01:00:12;;;;;;;14.68;10.80;;;;;;;19.91;83.32;100658.72;5049851;28;20338;-77
2022/06/24 01:02:39;;;;;;;13.57;10.35;;;;;;;19.81;83.80;100643.44;5052347;28;20035;-77
2022/06/24 01:05:06;;;;;;;16.60;11.35;;;;;;;19.72;84.21;100649.38;5050101;28;20056;-76
2022/06/24 01:07:37;;;;;;;15.73;12.10;;;;;;;19.67;83.86;100657.59;5047710;28;20037;-76
2022/06/24 01:10:02;;;;;;;12.38;8.57;;;;;;;19.59;82.40;100659.06;5049327;28;20027;-77
2022/06/24 01:12:31;;;;;;;6.22;4.75;;;;;;;19.43;79.36;100644.25;5048422;28;20037;-77
2022/06/24 01:14:56;;;;;;;8.65;3.90;;;;;;;19.24;78.65;100644.59;5050475;28;20032;-77
2022/06/24 01:17:21;;;;;;;4.95;2.60;;;;;;;19.04;77.67;100638.88;5048851;28;20087;-76
2022/06/24 01:19:47;;;;;;;4.63;2.10;;;;;;;18.86;77.29;100634.75;5046258;28;20036;-76
2022/06/24 01:22:19;;;;;;;2.40;1.40;;;;;;;18.62;77.52;100638.81;5044174;28;20029;-76
2022/06/24 01:24:44;;;;;;;2.83;1.40;;;;;;;18.44;78.78;100625.03;5050260;28;20017;-76
2022/06/24 01:27:09;;;;;;;3.38;1.60;;;;;;;18.41;79.28;100613.84;5048394;28;20036;-76
2022/06/24 01:29:35;;;;;;;4.38;1.40;;;;;;;18.41;78.80;100619.94;5050225;28;20417;-76
2022/06/24 01:32:00;;;;;;;3.75;1.38;;;;;;;18.39;78.53;100615.72;5047110;28;20057;-76
2022/06/24 01:34:26;;;;;;;1.55;0.98;;;;;;;18.29;78.27;100611.00;5053468;28;20031;-76
2022/06/24 01:36:52;;;;;;;4.03;1.17;;;;;;;18.22;78.39;100617.63;5051179;28;20017;-76
2022/06/24 01:39:18;;;;;;;2.15;1.00;;;;;;;18.19;78.54;100617.78;5050076;28;20025;-76
2022/06/24 01:41:44;;;;;;;2.85;1.05;;;;;;;18.17;77.88;100602.09;5047647;28;20044;-76
2022/06/24 01:44:09;;;;;;;1.75;0.95;;;;;;;18.14;77.92;100601.44;5050696;28;20037;-76
2022/06/24 01:46:35;;;;;;;1.48;1.00;;;;;;;18.09;78.46;100582.47;5048750;28;20025;-76
2022/06/24 01:49:00;;;;;;;2.15;0.90;;;;;;;18.07;78.91;100579.06;5046803;28;20032;-76
2022/06/24 01:51:27;;;;;;;2.63;0.80;;;;;;;18.07;78.34;100589.59;5049671;28;20158;-76
2022/06/24 01:53:53;;;;;;;2.17;1.00;;;;;;;18.07;78.03;100595.69;5046559;28;20032;-76
2022/06/24 01:56:18;;;;;;;1.85;0.77;;;;;;;18.05;78.06;100597.56;5047515;28;20029;-76
2022/06/24 01:58:44;;;;;;;1.73;0.73;;;;;;;18.06;77.87;100601.91;5047953;28;20035;-76
2022/06/24 02:01:10;;;;;;;1.25;0.80;;;;;;;18.07;79.32;100595.69;5045542;28;20025;-76
2022/06/24 02:03:37;;;;;;;1.15;0.70;;;;;;;18.09;79.26;100593.00;5046934;28;20025;-76
2022/06/24 02:06:08;;;;;;;1.10;0.70;;;;;;;18.11;78.84;100588.44;5046700;28;20044;-76
2022/06/24 02:08:34;;;;;;;1.00;0.80;;;;;;;18.11;78.39;100583.19;5046010;28;20075;-76
2022/06/24 02:13:45;;;;;;;1.92;0.77;;;;;;;18.14;77.82;100580.38;5051119;28;20273;-76
2022/06/24 02:16:11;;;;;;;0.93;0.65;;;;;;;18.15;78.47;100582.06;5048281;28;20086;-76
2022/06/24 02:18:37;;;;;;;1.50;0.90;;;;;;;18.15;78.97;100592.59;5047004;28;20025;-76
2022/06/24 02:21:02;;;;;;;1.20;0.60;;;;;;;18.15;79.94;100603.13;5046904;28;20439;-76
2022/06/24 02:23:28;;;;;;;1.65;0.80;;;;;;;18.18;80.44;100606.44;5052367;28;20430;-76
2022/06/24 02:25:55;;;;;;;2.00;0.90;;;;;;;18.17;79.99;100620.53;5050577;28;20020;-76
2022/06/24 02:28:21;;;;;;;1.50;0.90;;;;;;;18.15;80.33;100624.19;5045798;28;20079;-76
2022/06/24 02:30:47;;;;;;;1.92;1.02;;;;;;;18.17;79.59;100624.94;5051344;28;20025;-76
2022/06/24 02:33:13;;;;;;;3.85;1.20;;;;;;;18.17;79.90;100610.00;5050383;28;20024;-76
2022/06/24 02:35:40;;;;;;;2.33;1.10;;;;;;;18.11;78.46;100605.09;5051232;28;20039;-76
2022/06/24 02:38:05;;;;;;;2.40;1.00;;;;;;;18.07;78.65;100600.13;5049150;28;20090;-76
2022/06/24 02:40:47;;;;;;;2.28;0.93;;;;;;;18.04;78.99;100591.47;5048984;28;20029;-76
2022/06/24 02:43:19;;;;;;;1.33;0.80;;;;;;;18.05;80.60;100587.91;5048045;28;20387;-76
2022/06/24 02:45:46;;;;;;;1.90;0.90;;;;;;;18.05;81.28;100581.78;5050249;28;20483;-75
2022/06/24 02:48:13;;;;;;;1.15;0.80;;;;;;;18.05;81.23;100576.50;5045528;28;20029;-76
2022/06/24 02:50:42;;;;;;;1.65;1.20;;;;;;;18.01;80.95;100581.13;5049472;28;20036;-76
2022/06/24 02:53:08;;;;;;;1.85;1.15;;;;;;;17.98;80.36;100581.31;5050809;28;20036;-76
2022/06/24 02:55:34;;;;;;;1.55;0.90;;;;;;;17.93;80.37;100575.47;5048751;28;20446;-76
2022/06/24 02:57:59;;;;;;;1.73;1.20;;;;;;;17.92;80.81;100571.16;5051064;28;20025;-76
2022/06/24 03:00:24;;;;;;;2.17;1.20;;;;;;;17.92;79.78;100554.50;5048770;28;20048;-76
2022/06/24 03:02:50;;;;;;;1.30;1.00;;;;;;;17.92;79.92;100554.50;5050692;28;20032;-76
2022/06/24 03:05:15;;;;;;;1.63;0.93;;;;;;;17.89;79.94;100548.47;5050640;28;20044;-77
2022/06/24 03:07:40;;;;;;;1.63;1.20;;;;;;;17.88;80.45;100544.16;5049240;28;20032;-76
2022/06/24 03:10:06;;;;;;;3.08;1.30;;;;;;;17.86;80.37;100537.31;5050370;28;20147;-76
2022/06/24 03:12:31;;;;;;;3.65;1.50;;;;;;;17.85;80.45;100538.25;5049356;28;20108;-76
2022/06/24 03:14:57;;;;;;;3.05;1.30;;;;;;;17.84;80.58;100544.44;5046933;28;20099;-76
2022/06/24 03:17:22;;;;;;;3.47;1.30;;;;;;;17.84;80.25;100547.06;5049979;28;20465;-76
2022/06/24 03:19:47;;;;;;;2.88;1.25;;;;;;;17.83;81.77;100540.13;5048868;28;20025;-76
2022/06/24 03:22:12;;;;;;;2.40;1.25;;;;;;;17.84;82.22;100536.53;5046623;28;20365;-76
2022/06/24 03:24:38;;;;;;;2.50;1.30;;;;;;;17.82;80.94;100523.50;5046916;28;20029;-76
2022/06/24 03:27:03;;;;;;;2.28;1.20;;;;;;;17.81;81.54;100523.56;5048541;28;20112;-76
2022/06/24 03:29:30;;;;;;;2.10;1.25;;;;;;;17.80;81.22;100519.25;5047367;28;20029;-76
2022/06/24 03:31:56;;;;;;;2.65;1.30;;;;;;;17.78;82.04;100518.50;5047117;28;20029;-76
2022/06/24 03:34:21;;;;;;;3.08;1.63;;;;;;;17.77;81.43;100508.91;5047779;28;20032;-76
2022/06/24 03:36:46;;;;;;;3.30;1.50;;;;;;;17.73;81.59;100506.50;5048079;28;20091;-76
2022/06/24 03:39:11;;;;;;;2.70;1.45;;;;;;;17.74;82.24;100492.41;5047295;28;20029;-76
2022/06/24 03:41:37;;;;;;;2.60;1.50;;;;;;;17.74;82.41;100500.28;5044395;28;20526;-76
2022/06/24 03:44:02;;;;;;;2.30;1.20;;;;;;;17.74;82.18;100500.28;5046457;28;20379;-75
2022/06/24 03:46:27;;;;;;;2.08;1.40;;;;;;;17.77;82.58;100503.66;5047597;28;20108;-75
2022/06/24 03:48:53;;;;;;;2.95;1.30;;;;;;;17.77;82.15;100503.66;5046863;28;20143;-76
2022/06/24 03:51:18;;;;;;;2.05;1.45;;;;;;;17.78;82.41;100500.06;5047999;28;20056;-75
2022/06/24 03:53:43;;;;;;;2.88;1.50;;;;;;;17.77;82.67;100501.88;5047476;28;20476;-76
2022/06/24 03:56:10;;;;;;;3.05;1.50;;;;;;;17.77;82.76;100507.13;5047899;28;20040;-76
2022/06/24 03:58:35;;;;;;;2.45;1.50;;;;;;;17.74;81.90;100502.91;5046871;28;20120;-76
2022/06/24 04:01:01;;;;;;;2.78;1.60;;;;;;;17.71;81.86;100503.09;5049714;28;20458;-75
2022/06/24 04:03:27;;;;;;;3.08;1.63;;;;;;;17.71;82.69;100503.09;5046397;28;20476;-76
2022/06/24 04:05:53;;;;;;;2.45;1.90;;;;;;;17.69;82.66;100497.09;5049461;28;20502;-76
2022/06/24 04:08:18;;;;;;;2.28;1.80;;;;;;;17.71;83.00;100500.47;5043408;28;20020;-76
2022/06/24 04:10:43;;;;;;;2.45;1.80;;;;;;;17.73;83.23;100503.00;5046640;28;20031;-76
2022/06/24 04:13:08;;;;;;;3.50;1.60;;;;;;;17.74;83.58;100502.91;5047497;28;20062;-76
2022/06/24 04:15:34;;;;;;;3.72;2.00;;;;;;;17.75;83.53;100515.13;5043704;28;20037;-76
2022/06/24 04:17:59;;;;;;;2.92;1.70;;;;;;;17.75;83.81;100525.66;5046592;28;20031;-76
2022/06/24 04:20:24;;;;;;;2.08;1.67;;;;;;;17.79;83.33;100543.88;5049123;28;20025;-76
2022/06/24 04:22:50;;;;;;;2.40;1.70;;;;;;;17.78;83.31;100548.28;5053103;28;20059;-76
2022/06/24 04:25:16;;;;;;;4.15;1.67;;;;;;;17.80;82.99;100551.69;5050861;28;20083;-75
2022/06/24 04:27:41;;;;;;;3.70;1.77;;;;;;;17.79;83.17;100550.00;5049064;28;20487;-76
2022/06/24 04:30:09;;;;;;;5.28;2.00;;;;;;;17.82;83.51;100556.84;5050917;28;20036;-76
2022/06/24 04:32:34;;;;;;;5.47;1.98;;;;;;;17.83;83.28;100546.25;5051502;28;20044;-75
2022/06/24 04:35:00;;;;;;;4.03;1.88;;;;;;;17.87;82.91;100541.63;5051882;28;20036;-76
2022/06/24 04:37:26;;;;;;;1.80;1.70;;;;;;;17.88;82.75;100545.94;5049495;28;20017;-76
2022/06/24 04:39:51;;;;;;;2.83;1.95;;;;;;;17.89;82.46;100545.00;5050324;28;20033;-76
2022/06/24 04:42:16;;;;;;;2.70;1.67;;;;;;;17.90;82.27;100552.81;5049478;28;20028;-76
2022/06/24 04:44:42;;;;;;;2.53;1.88;;;;;;;17.91;82.55;100553.66;5054263;28;20017;-76
2022/06/24 04:47:07;;;;;;;5.85;2.13;;;;;;;17.94;83.12;100553.44;5054662;28;20090;-75
2022/06/24 04:49:33;;;;;;;3.80;2.03;;;;;;;17.96;82.33;100548.13;5054784;28;20056;-76
2022/06/24 04:51:58;;;;;;;2.47;1.92;;;;;;;17.97;82.95;100553.28;5056859;28;20429;-76
2022/06/24 04:54:23;;;;;;;2.65;2.05;;;;;;;17.99;82.40;100558.50;5046452;28;20029;-76
2022/06/24 04:56:49;;;;;;;3.30;1.98;;;;;;;18.00;83.27;100553.13;5047536;28;20099;-76
2022/06/24 04:59:14;;;;;;;3.78;1.73;;;;;;;18.03;82.03;100558.19;5049225;28;20098;-76
2022/06/24 05:01:40;;;;;;;4.05;2.33;;;;;;;18.05;82.22;100566.84;5048625;28;20098;-76
2022/06/24 05:04:05;;;;;;;3.33;2.03;;;;;;;18.08;82.21;100568.44;5047001;28;20480;-76
2022/06/24 05:06:30;;;;;;;3.45;2.15;;;;;;;18.09;82.31;100572.75;5052020;28;20123;-76
2022/06/24 05:08:56;;;;;;;2.53;2.25;;;;;;;18.09;82.55;100566.66;5047323;28;20020;-76
2022/06/24 05:11:21;;;;;;;3.95;2.47;;;;;;;18.12;83.36;100558.56;5048914;28;20033;-76
2022/06/24 05:13:47;;;;;;;2.50;2.28;;;;;;;18.15;83.68;100566.25;5046879;28;20044;-76
2022/06/24 05:16:12;;;;;;;3.45;2.72;;;;;;;18.13;83.59;100579.53;5045606;28;20029;-76
2022/06/24 05:18:37;;;;;;;3.95;2.67;;;;;;;18.13;83.83;100579.53;5048899;28;20029;-76
2022/06/24 05:21:03;;;;;;;4.25;2.45;;;;;;;18.16;83.95;100583.75;5050716;28;20028;-76
2022/06/24 05:23:29;;;;;;;4.47;2.47;;;;;;;18.19;84.38;100576.50;5050275;28;20548;-76
2022/06/24 05:25:55;;;;;;;9.02;3.38;;;;;;;18.22;83.92;100577.25;5050063;28;20806;-75
2022/06/24 05:28:20;;;;;;;3.70;2.42;;;;;;;18.22;84.09;100586.00;5047725;28;20336;-76
2022/06/24 05:30:45;;;;;;;3.08;2.28;;;;;;;18.20;84.21;100585.25;5048583;28;20104;-76
2022/06/24 05:33:10;;;;;;;5.10;2.67;;;;;;;18.20;84.61;100582.63;5050656;28;20029;-76
2022/06/24 05:35:36;;;;;;;3.88;2.75;;;;;;;18.18;84.18;100581.88;5047385;28;20024;-76
2022/06/24 05:38:01;;;;;;;3.67;2.75;;;;;;;18.18;84.82;100579.25;5043295;28;20036;-76
2022/06/24 05:40:27;;;;;;;4.10;2.85;;;;;;;18.17;84.21;100581.03;5044867;28;20020;-76
2022/06/24 05:42:52;;;;;;;3.80;3.00;;;;;;;18.17;84.04;100582.81;5050751;28;20024;-76
2022/06/24 05:45:17;;;;;;;3.88;2.90;;;;;;;18.16;84.17;100583.75;5046935;28;20056;-76
2022/06/24 05:47:43;;;;;;;5.13;3.30;;;;;;;18.15;84.15;100576.78;5047727;28;20064;-76
2022/06/24 05:50:09;;;;;;;5.15;3.17;;;;;;;18.15;84.12;100582.06;5048181;28;20613;-76
2022/06/24 05:55:18;;;;;;;4.15;3.45;;;;;;;18.17;84.95;100574.91;5046981;28;20062;-76
2022/06/24 05:57:43;;;;;;;4.88;3.63;;;;;;;18.16;84.76;100583.75;5045176;28;20049;-76
2022/06/24 06:00:09;;;;;;;4.32;3.05;;;;;;;18.16;84.38;100583.75;5047393;28;20025;-76
2022/06/24 06:02:35;;;;;;;4.95;3.28;;;;;;;18.16;84.43;100571.44;5048595;28;20459;-76
2022/06/24 06:05:00;;;;;;;4.68;3.40;;;;;;;18.17;84.91;100559.13;5048103;28;20057;-76
2022/06/24 06:07:26;;;;;;;4.25;3.42;;;;;;;18.18;85.33;100556.41;5044822;28;20104;-76
2022/06/24 06:09:51;;;;;;;3.90;3.30;;;;;;;18.22;84.80;100561.47;5052971;28;20494;-76
2022/06/24 06:12:16;;;;;;;4.60;3.80;;;;;;;18.24;84.72;100560.44;5050212;28;20044;-76
2022/06/24 06:14:42;;;;;;;6.40;3.85;;;;;;;18.26;84.18;100549.81;5042366;28;20021;-76
2022/06/24 06:17:07;;;;;;;6.65;3.35;;;;;;;18.27;83.73;100557.63;5040939;28;20112;-76
2022/06/24 06:19:34;;;;;;;5.72;3.63;;;;;;;18.27;83.84;100560.25;5046714;28;20322;-76
2022/06/24 06:22:03;;;;;;;4.75;3.33;;;;;;;18.26;83.93;100568.22;5046696;28;20204;-76
2022/06/24 06:24:31;;;;;;;5.63;3.60;;;;;;;18.27;83.90;100578.69;5047966;28;20025;-75
2022/06/24 06:26:57;;;;;;;5.03;3.65;;;;;;;18.27;83.88;100576.06;5044663;28;20652;-76
2022/06/24 06:29:23;;;;;;;4.68;3.60;;;;;;;18.28;83.74;100582.97;5046866;28;20112;-76
2022/06/24 06:31:50;;;;;;;4.25;3.45;;;;;;;18.28;83.91;100582.97;5040393;28;20187;-76
2022/06/24 06:34:16;;;;;;;5.05;3.50;;;;;;;18.29;83.54;100583.84;5046287;28;20032;-76
2022/06/24 06:36:41;;;;;;;5.95;3.42;;;;;;;18.30;83.89;100583.72;5046095;28;20028;-76
2022/06/24 06:39:07;;;;;;;7.47;3.58;;;;;;;18.30;83.38;100590.81;5046901;28;20024;-75
2022/06/24 06:41:32;;;;;;;5.28;3.90;;;;;;;18.30;83.88;100586.38;5041694;28;20020;-75
2022/06/24 06:43:57;;;;;;;5.78;3.67;;;;;;;18.31;84.19;100588.06;5046277;28;20070;-76
2022/06/24 06:46:22;;;;;;;5.30;3.45;;;;;;;18.31;84.21;100593.31;5045659;28;20040;-76
2022/06/24 06:48:48;;;;;;;4.30;3.53;;;;;;;18.34;84.32;100597.56;5051692;28;20047;-76
2022/06/24 06:51:13;;;;;;;6.90;3.75;;;;;;;18.37;84.23;100596.53;5044607;28;20038;-75
2022/06/24 06:53:38;;;;;;;5.03;3.63;;;;;;;18.40;84.23;100598.97;5050995;28;20096;-76
2022/06/24 06:56:04;;;;;;;5.45;3.80;;;;;;;18.40;84.48;100599.81;5048093;28;20037;-76
2022/06/24 06:58:30;;;;;;;5.90;3.80;;;;;;;18.42;83.91;100599.72;5048870;28;20017;-76
2022/06/24 07:00:55;;;;;;;4.60;3.80;;;;;;;18.45;84.63;100594.25;5057027;28;20051;-75
2022/06/24 07:03:20;;;;;;;4.45;3.30;;;;;;;18.46;84.51;100594.16;5048204;28;20383;-75
2022/06/24 07:05:46;;;;;;;4.03;3.63;;;;;;;18.48;85.04;100596.69;5044246;28;20114;-75
2022/06/24 07:08:13;;;;;;;5.60;3.55;;;;;;;18.47;84.31;100592.38;5052940;28;20078;-76
2022/06/24 07:10:39;;;;;;;4.05;3.65;;;;;;;18.46;84.41;100590.66;5051844;28;20456;-75
2022/06/24 07:13:05;;;;;;;4.55;3.70;;;;;;;18.45;84.48;100588.97;5053942;28;20082;-76
2022/06/24 07:15:31;;;;;;;4.90;3.83;;;;;;;18.43;84.15;100591.72;5047368;28;20055;-76
2022/06/24 07:17:56;;;;;;;4.40;4.00;;;;;;;18.43;84.45;100593.53;5046320;28;20025;-76
2022/06/24 07:20:21;;;;;;;5.18;3.88;;;;;;;18.42;84.28;100603.19;5048169;28;20103;-76
2022/06/24 07:22:47;;;;;;;5.07;3.97;;;;;;;18.43;84.91;100596.16;5053341;28;20040;-76
2022/06/24 07:25:12;;;;;;;7.55;4.43;;;;;;;18.42;85.04;100583.94;5047315;28;20029;-76
2022/06/24 07:27:37;;;;;;;7.38;4.50;;;;;;;18.42;85.22;100586.56;5048982;28;20200;-76
2022/06/24 07:30:03;;;;;;;4.80;4.07;;;;;;;18.41;85.40;100582.22;5052972;28;20502;-76
2022/06/24 07:32:29;;;;;;;7.22;4.10;;;;;;;18.39;85.34;100578.84;5052133;28;20029;-76
2022/06/24 07:34:54;;;;;;;5.07;4.05;;;;;;;18.40;85.58;100572.63;5044867;28;20028;-75
2022/06/24 07:37:19;;;;;;;5.63;4.22;;;;;;;18.40;85.21;100568.22;5044983;28;20356;-75
2022/06/24 07:39:45;;;;;;;5.57;4.30;;;;;;;18.40;85.73;100562.94;5043015;28;20037;-76
2022/06/24 07:42:10;;;;;;;5.50;4.28;;;;;;;18.43;85.92;100556.66;5048562;28;20066;-76
2022/06/24 07:44:35;;;;;;;5.10;4.10;;;;;;;18.42;86.06;100562.84;5046217;28;20048;-75
2022/06/24 07:47:01;;;;;;;5.57;4.38;;;;;;;18.42;86.02;100561.06;5044416;28;20040;-75
2022/06/24 07:49:26;;;;;;;4.90;4.30;;;;;;;18.43;86.29;100565.38;5045385;28;20033;-75
2022/06/24 07:51:51;;;;;;;5.15;4.55;;;;;;;18.44;86.22;100563.59;5047651;28;20025;-76
2022/06/24 07:54:17;;;;;;;5.78;4.40;;;;;;;18.45;86.09;100567.91;5050142;28;20094;-76
2022/06/24 07:56:58;;;;;;;6.28;4.35;;;;;;;18.46;86.51;100574.88;5047363;28;20094;-75
2022/06/24 07:59:28;;;;;;;7.13;5.33;;;;;;;18.48;86.57;100576.47;5051299;28;20748;-76
2022/06/24 08:01:54;;;;;;;6.88;5.65;;;;;;;18.54;86.53;100577.00;5044993;28;20029;-76
2022/06/24 08:04:24;;;;;;;7.07;5.88;;;;;;;18.59;86.65;100581.06;5045660;28;20036;-76
2022/06/24 08:06:50;;;;;;;7.28;5.70;;;;;;;18.64;86.24;100575.50;5050497;28;20049;-76
2022/06/24 08:09:17;;;;;;;6.63;5.90;;;;;;;18.70;86.83;100575.13;5052254;28;20387;-75
2022/06/24 08:11:43;;;;;;;8.13;6.65;;;;;;;18.77;86.28;100579.03;5049007;28;20055;-75
2022/06/24 08:14:09;;;;;;;7.88;6.88;;;;;;;18.79;85.73;100582.41;5052472;28;20087;-76
2022/06/24 08:16:34;;;;;;;7.13;6.28;;;;;;;18.80;85.63;100584.09;5048597;28;20520;-76
2022/06/24 08:18:59;;;;;;;7.43;6.47;;;;;;;18.82;85.89;100586.63;5056480;28;20155;-75
2022/06/24 08:21:25;;;;;;;9.50;6.82;;;;;;;18.81;85.03;100587.56;5052242;28;20043;-76
2022/06/24 08:23:50;;;;;;;7.45;6.63;;;;;;;18.80;84.87;100588.50;5056616;28;20037;-76
2022/06/24 08:26:16;;;;;;;7.57;6.80;;;;;;;18.82;85.18;100581.34;5056597;28;20044;-76
2022/06/24 08:28:41;;;;;;;7.90;7.10;;;;;;;18.85;84.65;100581.16;5056672;28;20094;-76
2022/06/24 08:31:07;;;;;;;8.43;7.28;;;;;;;18.87;84.92;100579.28;5055644;28;20105;-76
2022/06/24 08:33:32;;;;;;;9.20;7.70;;;;;;;18.90;85.33;100579.09;5056282;28;20033;-76
2022/06/24 08:35:57;;;;;;;9.13;7.57;;;;;;;18.93;84.97;100586.81;5055070;28;20028;-76
2022/06/24 08:38:23;;;;;;;8.23;7.43;;;;;;;18.94;84.89;100583.25;5057028;28;20038;-76
2022/06/24 08:40:50;;;;;;;9.93;7.97;;;;;;;18.94;84.13;100591.16;5059513;28;20037;-76
2022/06/24 08:43:16;;;;;;;8.88;7.97;;;;;;;18.93;85.04;100583.31;5054043;28;20032;-75
2022/06/24 08:45:42;;;;;;;8.93;8.00;;;;;;;18.96;85.49;100589.25;5056769;28;20035;-76
2022/06/24 08:48:10;;;;;;;9.18;7.90;;;;;;;19.00;84.01;100589.03;5057226;28;20036;-76
2022/06/24 08:50:37;;;;;;;9.18;8.13;;;;;;;19.01;85.04;100582.84;5060707;28;20111;-76
2022/06/24 08:53:07;;;;;;;9.73;8.43;;;;;;;19.03;85.33;100586.22;5055948;28;20033;-76
2022/06/24 08:55:40;;;;;;;11.27;9.57;;;;;;;19.02;85.09;100581.88;5060333;28;20037;-76
2022/06/24 08:58:10;;;;;;;11.75;9.57;;;;;;;19.03;84.88;100586.22;5053214;28;20174;-76
2022/06/24 09:00:36;;;;;;;12.75;9.85;;;;;;;19.07;84.56;100577.16;5053974;28;20063;-76
2022/06/24 09:03:02;;;;;;;13.00;10.43;;;;;;;19.12;85.01;100583.00;5058551;28;20036;-76
2022/06/24 09:05:28;;;;;;;12.18;9.90;;;;;;;19.19;84.97;100576.34;5051907;28;20400;-76
2022/06/24 09:08:08;;;;;;;14.95;11.15;;;;;;;19.26;83.61;100572.38;5052573;28;20116;-76
2022/06/24 09:10:35;;;;;;;13.27;10.93;;;;;;;19.34;83.47;100568.34;5054356;28;20028;-76
2022/06/24 09:13:00;;;;;;;15.20;11.35;;;;;;;19.40;83.92;100560.88;5057514;28;20044;-76
2022/06/24 09:15:26;;;;;;;14.13;11.73;;;;;;;19.49;83.93;100562.03;5059178;28;20661;-76
2022/06/24 09:17:52;;;;;;;13.60;11.30;;;;;;;19.59;84.00;100564.91;5051023;28;20059;-76
2022/06/24 09:20:19;;;;;;;14.35;11.43;;;;;;;19.68;83.79;100569.56;5053371;28;20028;-76
2022/06/24 09:22:44;;;;;;;13.18;11.23;;;;;;;19.76;83.41;100561.09;5054864;28;20021;-76
2022/06/24 09:25:10;;;;;;;13.75;11.10;;;;;;;19.86;83.25;100561.31;5054904;28;20065;-76
2022/06/24 09:27:43;;;;;;;14.90;11.20;;;;;;;19.95;81.05;100559.88;5054304;28;20032;-76
2022/06/24 09:30:10;;;;;;;13.65;9.40;;;;;;;19.99;81.74;100561.31;5052318;28;20035;-76
2022/06/24 09:32:51;;;;;;;10.82;9.23;;;;;;;20.07;80.92;100566.09;5053657;28;20538;-76
2022/06/24 09:35:18;;;;;;;13.73;9.13;;;;;;;20.19;80.97;100569.63;5050437;28;20095;-76
2022/06/24 09:37:47;;;;;;;14.32;10.25;;;;;;;20.28;80.90;100567.19;5048348;28;20036;-76
2022/06/24 09:40:28;;;;;;;14.90;9.52;;;;;;;20.38;81.26;100570.00;5049788;28;20059;-76
2022/06/24 09:43:01;;;;;;;9.77;8.77;;;;;;;20.39;80.19;100574.34;5056408;28;20032;-76
2022/06/24 09:45:44;;;;;;;11.48;9.57;;;;;;;20.38;79.71;100570.00;5047246;28;20432;-76
2022/06/24 09:48:33;;;;;;;13.52;9.32;;;;;;;20.41;79.22;100571.63;5045214;28;20037;-75
2022/06/24 09:51:01;;;;;;;10.23;9.02;;;;;;;20.38;79.50;100572.66;5048855;28;20020;-77
2022/06/24 09:53:28;;;;;;;10.30;8.38;;;;;;;20.30;76.97;100582.94;5048700;28;20485;-76
2022/06/24 09:55:54;;;;;;;8.48;7.60;;;;;;;20.25;78.01;100577.13;5047423;28;20537;-76
2022/06/24 09:58:21;;;;;;;7.50;6.45;;;;;;;20.28;75.04;100582.22;5049622;28;20361;-76
2022/06/24 10:00:49;;;;;;;7.32;6.32;;;;;;;20.31;75.18;100576.72;5046604;28;20025;-76
2022/06/24 10:03:16;;;;;;;6.35;5.57;;;;;;;20.33;77.06;100574.78;5048977;28;20035;-75
2022/06/24 10:05:46;;;;;;;6.18;5.47;;;;;;;20.33;75.25;100577.41;5042088;28;20136;-76
2022/06/24 10:08:17;;;;;;;8.98;5.78;;;;;;;20.36;75.56;100581.66;5046290;28;20165;-75
2022/06/24 10:10:46;;;;;;;8.55;5.70;;;;;;;20.45;75.96;100573.91;5046044;28;20053;-76
2022/06/24 10:13:32;;;;;;;7.35;5.40;;;;;;;20.55;75.16;100571.47;5051065;28;20107;-76
2022/06/24 10:15:59;;;;;;;6.97;5.65;;;;;;;20.66;77.44;100565.41;5048532;28;20033;-76
2022/06/24 10:18:32;;;;;;;6.00;5.40;;;;;;;20.77;74.76;100562.84;5048458;28;20071;-76
2022/06/24 10:20:59;;;;;;;10.48;6.60;;;;;;;20.92;75.78;100563.47;5043912;28;20028;-76
2022/06/24 10:23:48;;;;;;;7.07;6.05;;;;;;;21.10;74.74;100562.25;5050137;28;20032;-76
2022/06/24 10:26:29;;;;;;;8.35;6.93;;;;;;;21.21;74.10;100560.47;5046878;28;20056;-76
2022/06/24 10:29:03;;;;;;;7.68;6.38;;;;;;;21.28;72.26;100571.44;5049223;28;20044;-76
2022/06/24 10:31:56;;;;;;;7.78;6.97;;;;;;;21.37;73.62;100565.44;5046415;28;20484;-76
2022/06/24 10:34:31;;;;;;;8.98;7.97;;;;;;;21.40;70.75;100568.81;5047598;28;20047;-76
2022/06/24 10:37:12;;;;;;;10.85;8.02;;;;;;;21.38;70.95;100568.94;5045326;28;20024;-76
2022/06/24 10:39:49;;;;;;;11.48;8.90;;;;;;;21.38;71.85;100567.13;5040571;28;20483;-76
2022/06/24 10:42:15;;;;;;;10.38;9.05;;;;;;;21.32;70.15;100570.25;5045358;28;20151;-76
2022/06/24 10:44:56;;;;;;;13.95;9.45;;;;;;;21.28;72.63;100582.03;5050284;28;20357;-76
2022/06/24 10:47:27;;;;;;;11.93;9.77;;;;;;;21.22;73.05;100583.34;5049119;28;20032;-76
2022/06/24 10:49:54;;;;;;;10.15;8.25;;;;;;;21.14;70.39;100585.69;5050289;28;20032;-76
2022/06/24 10:52:37;;;;;;;10.52;8.07;;;;;;;21.04;72.91;100588.19;5045293;28;20036;-76
2022/06/24 10:55:14;;;;;;;13.75;8.18;;;;;;;20.95;73.17;100607.38;5044620;28;20365;-76
2022/06/24 10:57:40;;;;;;;5.63;4.10;;;;;;;20.72;68.39;100617.78;5042231;28;20032;-76
2022/06/24 11:00:37;;;;;;;4.38;3.08;;;;;;;20.51;71.35;100611.41;5051380;28;20052;-76
2022/06/24 11:03:02;;;;;;;3.83;2.38;;;;;;;20.27;70.43;100617.50;5052640;28;20139;-76
2022/06/24 11:05:36;;;;;;;4.72;1.70;;;;;;;20.09;71.10;100631.03;5051649;28;20198;-76
2022/06/24 11:08:03;;;;;;;3.45;1.60;;;;;;;19.91;71.26;100638.41;5054868;28;20036;-75
2022/06/24 11:10:30;;;;;;;4.13;1.50;;;;;;;19.70;72.05;100632.78;5052274;28;20025;-76
2022/06/24 11:13:00;;;;;;;6.18;1.60;;;;;;;19.53;72.43;100613.66;5047141;28;20038;-76
2022/06/24 11:15:37;;;;;;;2.72;1.30;;;;;;;19.42;73.11;100603.00;5046184;28;20115;-75
2022/06/24 11:18:16;;;;;;;3.30;1.65;;;;;;;19.31;73.75;100600.19;5047882;28;20071;-76
2022/06/24 11:20:45;;;;;;;5.90;1.70;;;;;;;19.19;74.21;100608.00;5053682;28;20024;-76
2022/06/24 11:23:13;;;;;;;5.28;2.10;;;;;;;19.17;75.17;100609.06;5052490;28;20090;-76
2022/06/24 11:25:45;;;;;;;3.45;2.20;;;;;;;19.17;75.68;100609.06;5050306;28;20086;-76
2022/06/24 11:28:28;;;;;;;5.22;2.22;;;;;;;19.21;75.35;100598.19;5054958;28;20041;-76
2022/06/24 11:30:55;;;;;;;7.43;2.30;;;;;;;19.25;76.42;100591.78;5051252;28;20036;-76
2022/06/24 11:33:22;;;;;;;6.25;2.38;;;;;;;19.32;76.74;100586.06;5054939;28;20036;-77